Terminal Aerodrome Forecast
Issued by NWS

Home | Current Version | Previous Version | Text Only | Print | Product List | Glossary On
Versions: 1 2 3 4 5 6 7 8 9 10 11 12 13 14 15 16 17 18 19 20
000
FTUS44 KEWX 262002 AAA
TAFSSF
TAF AMD
KSSF 262002Z 2620/2718 19010KT P6SM SCT050
     FM270500 15010KT P6SM OVC015
     FM271000 15010KT P6SM OVC007
     FM271700 16012KT P6SM BKN015=

USA.gov is the U.S. government's official web portal to all federal, state and local government web resources and services.